Time;durP1;ratioP1;P1;durP2;ratioP2;P2;SDS_P1;SDS_P2;PMS_P1;PMS_P2;Temp;Humidity;BMP_temperature;BMP_pressure;BME280_temperature;BME280_humidity;BME280_pressure;Samples;Min_cycle;Max_cycle;Signal;HPM_P1;HPM_P2
2021/01/09 00:03:40;;;;;;;;;;;;;;;26.04;37.10;100903.66;5075536;28;1261;-47
2021/01/09 00:06:05;;;;;;;;;;;;;;;26.09;36.77;100905.66;5060705;28;1086;-49
2021/01/09 00:08:30;;;;;;;;;;;;;;;26.13;36.83;100909.56;5054227;28;1404;-44
2021/01/09 00:10:55;;;;;;;;;;;;;;;26.22;35.94;100899.38;5050029;28;1362;-45
2021/01/09 00:13:20;;;;;;;;;;;;;;;26.26;35.88;100903.25;5049958;28;1113;-44
2021/01/09 00:15:46;;;;;;;;;;;;;;;26.27;35.27;100902.22;5066054;28;1066;-44
2021/01/09 00:18:11;;;;;;;;;;;;;;;26.26;35.56;100899.75;5068741;28;1343;-44
2021/01/09 00:20:36;;;;;;;;;;;;;;;26.31;35.72;100906.09;5062487;28;1192;-45
2021/01/09 00:23:01;;;;;;;;;;;;;;;26.32;35.74;100910.44;5055854;28;1977;-44
2021/01/09 00:25:26;;;;;;;;;;;;;;;26.33;35.57;100914.75;5057154;28;995;-47
2021/01/09 00:27:51;;;;;;;;;;;;;;;26.35;35.93;100916.41;5067427;28;1292;-45
2021/01/09 00:30:17;;;;;;;;;;;;;;;26.35;35.22;100914.53;5068202;28;1081;-45
2021/01/09 00:32:42;;;;;;;;;;;;;;;26.35;36.74;100913.72;5054226;28;999;-43
2021/01/09 00:35:07;;;;;;;;;;;;;;;26.33;35.59;100917.44;5059887;28;1372;-48
2021/01/09 00:37:33;;;;;;;;;;;;;;;26.36;35.80;100909.97;5053635;28;1355;-47
2021/01/09 00:39:58;;;;;;;;;;;;;;;26.33;35.19;100912.06;5050579;28;1145;-44
2021/01/09 00:42:23;;;;;;;;;;;;;;;26.37;35.59;100911.63;5050513;28;1909;-45
2021/01/09 00:44:49;;;;;;;;;;;;;;;26.35;35.49;100914.53;5055433;28;1090;-45
2021/01/09 00:47:14;;;;;;;;;;;;;;;26.36;34.58;100905.41;5066223;28;1359;-45
2021/01/09 00:49:39;;;;;;;;;;;;;;;26.41;34.73;100916.31;5065677;28;1190;-48
2021/01/09 00:52:04;;;;;;;;;;;;;;;26.45;34.66;100919.38;5053303;28;1081;-44
2021/01/09 00:54:31;;;;;;;;;;;;;;;26.45;34.79;100924.78;5055795;28;1102;-60
2021/01/09 00:56:56;;;;;;;;;;;;;;;26.60;34.29;100917.13;5054118;28;1280;-59
2021/01/09 00:59:24;;;;;;;;;;;;;;;26.73;34.01;100926.09;5059225;28;1085;-58
2021/01/09 01:01:50;;;;;;;;;;;;;;;26.66;34.39;100925.34;5049907;28;1942;-45
2021/01/09 01:04:15;;;;;;;;;;;;;;;26.60;37.05;100927.09;5052730;28;1801;-45
2021/01/09 01:06:40;;;;;;;;;;;;;;;26.50;35.45;100921.38;5059554;28;1296;-49
2021/01/09 01:09:05;;;;;;;;;;;;;;;26.52;34.22;100925.50;5054586;28;1098;-45
2021/01/09 01:11:31;;;;;;;;;;;;;;;26.48;35.13;100938.56;5058262;28;1034;-47
2021/01/09 01:13:56;;;;;;;;;;;;;;;26.48;34.64;100927.00;5059867;28;1074;-48
2021/01/09 01:16:22;;;;;;;;;;;;;;;26.48;34.40;100935.06;5053163;28;1320;-47
2021/01/09 01:18:48;;;;;;;;;;;;;;;26.45;34.43;100935.53;5054583;28;1144;-47
2021/01/09 01:21:13;;;;;;;;;;;;;;;26.45;34.41;100940.91;5054425;28;1156;-49
2021/01/09 01:23:38;;;;;;;;;;;;;;;26.40;34.24;100933.50;5049044;28;1898;-45
2021/01/09 01:26:04;;;;;;;;;;;;;;;26.41;34.52;100934.31;5046587;28;1718;-46
2021/01/09 01:28:29;;;;;;;;;;;;;;;26.40;34.25;100948.81;5034216;28;1747;-45
2021/01/09 01:30:55;;;;;;;;;;;;;;;26.42;34.66;100935.97;5032707;28;1683;-46
2021/01/09 01:33:20;;;;;;;;;;;;;;;26.44;36.57;100939.25;5035667;28;1105;-48
2021/01/09 01:35:47;;;;;;;;;;;;;;;26.44;34.43;100939.25;5047903;28;1039;-46
2021/01/09 01:38:12;;;;;;;;;;;;;;;26.46;34.38;100937.16;5040708;28;1501;-49
2021/01/09 01:40:37;;;;;;;;;;;;;;;26.46;34.33;100943.34;5036620;28;1256;-47
2021/01/09 01:43:07;;;;;;;;;;;;;;;26.46;34.23;100953.28;5034864;28;1894;-50
2021/01/09 01:45:32;;;;;;;;;;;;;;;26.43;34.06;100948.38;5039819;28;1213;-48
2021/01/09 01:47:58;;;;;;;;;;;;;;;26.48;33.91;100945.81;5036815;28;1327;-46
2021/01/09 01:50:23;;;;;;;;;;;;;;;26.44;34.62;100945.44;5052652;28;1144;-49
2021/01/09 01:52:49;;;;;;;;;;;;;;;26.47;34.34;100944.19;5053167;28;1070;-45
2021/01/09 01:55:15;;;;;;;;;;;;;;;26.45;34.05;100940.91;5050212;28;1966;-47
2021/01/09 01:57:41;;;;;;;;;;;;;;;26.44;34.31;100945.44;5043323;28;1288;-45
2021/01/09 02:00:07;;;;;;;;;;;;;;;26.46;34.07;100953.28;5052183;28;1092;-48
2021/01/09 02:02:32;;;;;;;;;;;;;;;26.45;33.81;100951.66;5024882;28;1953;-51
2021/01/09 02:05:02;;;;;;;;;;;;;;;26.44;33.92;100948.13;5030913;28;1956;-49
2021/01/09 02:07:30;;;;;;;;;;;;;;;26.41;34.24;100956.63;5034048;28;1290;-49
2021/01/09 02:09:56;;;;;;;;;;;;;;;26.41;34.07;100953.16;5028966;28;1664;-47
2021/01/09 02:12:29;;;;;;;;;;;;;;;26.40;34.26;100955.00;5028545;28;1779;-49
2021/01/09 02:14:59;;;;;;;;;;;;;;;26.35;34.22;100962.09;5024695;28;1499;-46
2021/01/09 02:17:25;;;;;;;;;;;;;;;26.28;34.00;100968.38;5031934;28;1389;-45
2021/01/09 02:19:50;;;;;;;;;;;;;;;26.24;33.68;100971.69;5036333;28;1301;-43
2021/01/09 02:22:16;;;;;;;;;;;;;;;26.16;33.78;100970.13;5034802;28;1954;-47
2021/01/09 02:24:47;;;;;;;;;;;;;;;26.08;33.89;100970.38;5039069;28;1164;-46
2021/01/09 02:27:13;;;;;;;;;;;;;;;26.01;33.25;100976.66;5051582;28;1351;-46
2021/01/09 02:30:01;;;;;;;;;;;;;;;25.94;33.27;100975.88;5052266;28;1164;-43
2021/01/09 02:32:29;;;;;;;;;;;;;;;25.92;33.18;100980.66;5032442;28;1251;-44
2021/01/09 02:34:58;;;;;;;;;;;;;;;25.84;32.73;100980.91;5039501;28;1731;-44
2021/01/09 02:37:23;;;;;;;;;;;;;;;25.76;32.92;100982.00;5049441;28;1261;-48
2021/01/09 02:39:50;;;;;;;;;;;;;;;25.70;33.37;100978.34;5051932;28;1026;-43
2021/01/09 02:42:15;;;;;;;;;;;;;;;25.66;33.08;100987.03;5048015;28;1890;-46
2021/01/09 02:44:41;;;;;;;;;;;;;;;25.62;32.90;100978.59;5050882;28;1066;-44
2021/01/09 02:47:06;;;;;;;;;;;;;;;25.56;32.65;100977.59;5047595;28;1289;-49
2021/01/09 02:49:31;;;;;;;;;;;;;;;25.51;32.73;100974.75;5049711;28;1093;-44
2021/01/09 02:51:56;;;;;;;;;;;;;;;25.48;32.57;100967.13;5052589;28;991;-47
2021/01/09 02:54:22;;;;;;;;;;;;;;;25.44;32.66;100968.56;5048707;28;1022;-43
2021/01/09 02:56:47;;;;;;;;;;;;;;;25.40;32.56;100972.72;5051189;28;1300;-45
2021/01/09 02:59:12;;;;;;;;;;;;;;;25.35;32.88;100959.97;5048351;28;1125;-43
2021/01/09 03:01:37;;;;;;;;;;;;;;;25.30;32.61;100965.16;5050490;28;1890;-44
2021/01/09 03:04:02;;;;;;;;;;;;;;;25.25;32.61;100956.94;5043636;28;1392;-52
2021/01/09 03:06:28;;;;;;;;;;;;;;;25.24;32.46;100958.78;5031181;28;1576;-44
2021/01/09 03:08:53;;;;;;;;;;;;;;;25.21;32.28;100963.75;5041151;28;1027;-43
2021/01/09 03:11:19;;;;;;;;;;;;;;;25.20;32.15;100968.28;5044083;28;1054;-44
2021/01/09 03:13:44;;;;;;;;;;;;;;;25.15;32.08;100970.78;5051323;28;1077;-46
2021/01/09 03:16:10;;;;;;;;;;;;;;;25.13;32.47;100972.88;5047666;28;1141;-46
2021/01/09 03:18:35;;;;;;;;;;;;;;;25.12;32.15;100980.06;5050020;28;1244;-45
2021/01/09 03:21:00;;;;;;;;;;;;;;;25.11;32.03;100975.75;5050089;28;1011;-46
2021/01/09 03:23:26;;;;;;;;;;;;;;;25.09;32.01;100972.44;5046942;28;1901;-44
2021/01/09 03:25:51;;;;;;;;;;;;;;;25.08;31.84;100973.50;5048677;28;1077;-46
2021/01/09 03:28:16;;;;;;;;;;;;;;;25.05;31.85;100976.59;5051731;28;1378;-45
2021/01/09 03:30:41;;;;;;;;;;;;;;;25.02;31.82;100975.19;5048809;28;1014;-45
2021/01/09 03:33:06;;;;;;;;;;;;;;;24.98;31.98;100971.28;5050294;28;1066;-47
2021/01/09 03:35:31;;;;;;;;;;;;;;;24.99;31.50;100972.09;5047000;28;1073;-44
2021/01/09 03:37:56;;;;;;;;;;;;;;;24.97;31.72;100969.63;5050007;28;1433;-43
2021/01/09 03:40:22;;;;;;;;;;;;;;;24.96;31.62;100965.31;5046127;28;1283;-44
2021/01/09 03:42:47;;;;;;;;;;;;;;;24.94;31.53;100969.22;5049150;28;1971;-42
2021/01/09 03:45:12;;;;;;;;;;;;;;;24.91;31.53;100965.13;5051234;28;1038;-44
2021/01/09 03:47:37;;;;;;;;;;;;;;;24.88;31.36;100969.03;5047662;28;1252;-43
2021/01/09 03:50:04;;;;;;;;;;;;;;;24.87;31.42;100975.44;5043910;28;1641;-48
2021/01/09 03:52:29;;;;;;;;;;;;;;;24.86;31.47;100981.03;5051718;28;983;-43
2021/01/09 03:54:55;;;;;;;;;;;;;;;24.84;31.48;100980.41;5051550;28;1077;-44
2021/01/09 03:57:20;;;;;;;;;;;;;;;24.80;31.64;100974.63;5049677;28;1394;-49
2021/01/09 03:59:45;;;;;;;;;;;;;;;24.78;31.22;100986.63;5050096;28;1150;-43
2021/01/09 04:02:10;;;;;;;;;;;;;;;24.76;31.54;100978.78;5050522;28;1909;-43
2021/01/09 04:04:35;;;;;;;;;;;;;;;24.76;31.63;100975.28;5047381;28;1011;-43
2021/01/09 04:07:01;;;;;;;;;;;;;;;24.75;31.33;100982.50;5050304;28;1372;-46
2021/01/09 04:09:26;;;;;;;;;;;;;;;24.72;31.63;100975.69;5046161;28;1038;-44
2021/01/09 04:11:51;;;;;;;;;;;;;;;24.70;31.35;100979.59;5049207;28;1058;-44
2021/01/09 04:14:16;;;;;;;;;;;;;;;24.69;31.29;100978.78;5051327;28;1015;-44
2021/01/09 04:16:41;;;;;;;;;;;;;;;24.68;31.30;100982.50;5047808;28;1276;-43
2021/01/09 04:19:06;;;;;;;;;;;;;;;24.67;31.20;100975.50;5050514;28;1010;-43
2021/01/09 04:21:32;;;;;;;;;;;;;;;24.66;31.38;100983.72;5047646;28;1951;-47
2021/01/09 04:23:57;;;;;;;;;;;;;;;24.65;31.32;100985.59;5049404;28;1060;-43
2021/01/09 04:26:22;;;;;;;;;;;;;;;24.64;31.37;100988.47;5051411;28;1342;-45
2021/01/09 04:28:47;;;;;;;;;;;;;;;24.63;31.20;100993.03;5048503;28;1066;-44
2021/01/09 04:31:13;;;;;;;;;;;;;;;24.61;31.23;100995.09;5050284;28;1050;-48
2021/01/09 04:33:38;;;;;;;;;;;;;;;24.61;31.33;100987.06;5047499;28;1018;-47
2021/01/09 04:36:04;;;;;;;;;;;;;;;24.59;31.25;100986.44;5049499;28;1070;-43
2021/01/09 04:38:29;;;;;;;;;;;;;;;24.60;31.02;100996.13;5046644;28;1287;-50
2021/01/09 04:40:54;;;;;;;;;;;;;;;24.59;31.32;100989.94;5048948;28;999;-43
2021/01/09 04:43:20;;;;;;;;;;;;;;;24.59;31.09;100997.16;5051350;28;1941;-43
2021/01/09 04:45:45;;;;;;;;;;;;;;;24.57;31.22;100996.56;5048312;28;951;-44
2021/01/09 04:48:12;;;;;;;;;;;;;;;24.55;31.08;101003.97;5050050;28;1394;-43
2021/01/09 04:50:37;;;;;;;;;;;;;;;24.55;31.10;101007.47;5050879;28;1077;-43
2021/01/09 04:53:03;;;;;;;;;;;;;;;24.54;30.87;101002.31;5053725;28;1046;-44
2021/01/09 04:55:29;;;;;;;;;;;;;;;24.54;30.83;101015.72;5049669;28;1039;-46
2021/01/09 04:57:59;;;;;;;;;;;;;;;24.52;31.19;101015.13;5052681;28;1355;-46
2021/01/09 05:00:25;;;;;;;;;;;;;;;24.51;31.18;101014.28;5054984;28;1093;-45
2021/01/09 05:02:50;;;;;;;;;;;;;;;24.52;31.07;101025.84;5049995;28;1957;-44
2021/01/09 05:05:16;;;;;;;;;;;;;;;24.50;31.17;101026.03;5052493;28;1010;-43
2021/01/09 05:07:41;;;;;;;;;;;;;;;24.50;30.88;101027.91;5049878;28;1341;-46
2021/01/09 05:10:06;;;;;;;;;;;;;;;24.49;31.07;101027.06;5051448;28;1096;-43
2021/01/09 05:12:32;;;;;;;;;;;;;;;24.49;30.81;101024.38;5055104;28;1186;-44
2021/01/09 05:14:58;;;;;;;;;;;;;;;24.48;30.77;101022.72;5050661;28;998;-45
2021/01/09 05:17:24;;;;;;;;;;;;;;;24.48;30.74;101025.41;5053077;28;1378;-44
2021/01/09 05:19:49;;;;;;;;;;;;;;;24.48;30.81;101035.31;5050711;28;1025;-43
2021/01/09 05:22:15;;;;;;;;;;;;;;;24.46;30.87;101032.03;5052704;28;1961;-43
2021/01/09 05:24:44;;;;;;;;;;;;;;;24.45;30.85;101036.56;5048924;28;959;-46
2021/01/09 05:27:09;;;;;;;;;;;;;;;24.43;30.90;101033.25;5037692;28;2039;-43
2021/01/09 05:29:35;;;;;;;;;;;;;;;24.45;30.70;101033.88;5037604;28;954;-43
2021/01/09 05:32:03;;;;;;;;;;;;;;;24.40;30.60;101022.94;5038482;28;992;-43
2021/01/09 05:34:28;;;;;;;;;;;;;;;24.42;30.81;101029.75;5051972;28;1106;-44
2021/01/09 05:36:53;;;;;;;;;;;;;;;24.41;30.59;101033.47;5041650;28;1363;-44
2021/01/09 05:39:18;;;;;;;;;;;;;;;24.41;30.91;101035.31;5039996;28;1011;-44
2021/01/09 05:41:44;;;;;;;;;;;;;;;24.39;30.76;101032.03;5037165;28;1966;-43
2021/01/09 05:44:09;;;;;;;;;;;;;;;24.39;30.85;101043.56;5051185;28;1086;-50
2021/01/09 05:46:36;;;;;;;;;;;;;;;24.39;30.90;101034.69;5053755;28;1280;-44
2021/01/09 05:49:01;;;;;;;;;;;;;;;24.38;30.72;101046.44;5050554;28;1041;-48
2021/01/09 05:51:28;;;;;;;;;;;;;;;24.36;30.69;101038.63;5053066;28;1172;-43
2021/01/09 05:53:53;;;;;;;;;;;;;;;24.36;30.49;101040.47;5049110;28;1077;-41
2021/01/09 05:56:21;;;;;;;;;;;;;;;24.35;30.48;101044.19;5051505;28;1248;-40
2021/01/09 05:58:48;;;;;;;;;;;;;;;24.34;30.75;101048.72;5048436;28;1049;-47
2021/01/09 06:01:13;;;;;;;;;;;;;;;24.34;30.79;101047.91;5051746;28;1022;-45
2021/01/09 06:03:43;;;;;;;;;;;;;;;24.32;30.54;101044.59;5048850;28;1951;-45
2021/01/09 06:06:15;;;;;;;;;;;;;;;24.34;30.35;101047.91;5052812;28;1077;-43
2021/01/09 06:08:44;;;;;;;;;;;;;;;24.34;30.66;101053.25;5047026;28;1307;-45
2021/01/09 06:11:15;;;;;;;;;;;;;;;24.35;30.54;101058.41;5053430;28;1198;-43
2021/01/09 06:13:41;;;;;;;;;;;;;;;24.33;30.66;101055.13;5049960;28;1101;-45
2021/01/09 06:16:07;;;;;;;;;;;;;;;24.32;30.60;101063.34;5051766;28;1074;-43
2021/01/09 06:18:32;;;;;;;;;;;;;;;24.31;30.44;101053.66;5049622;28;1216;-43
2021/01/09 06:20:57;;;;;;;;;;;;;;;24.29;30.40;101053.88;5051243;28;1157;-48
2021/01/09 06:23:23;;;;;;;;;;;;;;;24.29;30.63;101060.06;5050556;28;1897;-44
2021/01/09 06:25:49;;;;;;;;;;;;;;;24.29;30.38;101054.69;5047915;28;1150;-45
2021/01/09 06:28:15;;;;;;;;;;;;;;;24.31;30.18;101059.03;5052790;28;1220;-49
2021/01/09 06:30:43;;;;;;;;;;;;;;;24.30;30.51;101060.91;5049144;28;1144;-44
2021/01/09 06:33:13;;;;;;;;;;;;;;;24.31;30.37;101056.34;5052158;28;1136;-48
2021/01/09 06:35:38;;;;;;;;;;;;;;;24.29;30.40;101061.94;5048879;28;1144;-44
2021/01/09 06:38:04;;;;;;;;;;;;;;;24.29;30.42;101061.94;5050735;28;1272;-43
2021/01/09 06:40:29;;;;;;;;;;;;;;;24.25;30.56;101063.38;5049707;28;1101;-44
2021/01/09 06:42:55;;;;;;;;;;;;;;;24.26;30.27;101065.81;5048295;28;1902;-43
2021/01/09 06:45:20;;;;;;;;;;;;;;;24.27;30.12;101067.47;5051914;28;1113;-44
2021/01/09 06:47:58;;;;;;;;;;;;;;;24.26;30.24;101065.81;5049234;28;1268;-44
2021/01/09 06:50:24;;;;;;;;;;;;;;;24.26;30.51;101071.19;5051980;28;1081;-44
2021/01/09 06:52:55;;;;;;;;;;;;;;;24.28;30.44;101071.00;5048049;28;1105;-43
2021/01/09 06:55:46;;;;;;;;;;;;;;;24.28;30.28;101074.47;5050628;28;1073;-44
2021/01/09 06:58:13;;;;;;;;;;;;;;;24.27;30.17;101078.19;5047105;28;1943;-50
2021/01/09 07:00:39;;;;;;;;;;;;;;;24.27;30.07;101070.16;5052518;28;1011;-44
2021/01/09 07:03:13;;;;;;;;;;;;;;;24.27;30.19;101067.47;5048086;28;1914;-47
2021/01/09 07:05:44;;;;;;;;;;;;;;;24.27;30.46;101070.16;5052130;28;1162;-48
2021/01/09 07:08:20;;;;;;;;;;;;;;;24.27;30.18;101072.84;5046033;28;1283;-44
2021/01/09 07:10:53;;;;;;;;;;;;;;;24.27;30.25;101085.41;5052050;28;1216;-45
2021/01/09 07:13:19;;;;;;;;;;;;;;;24.27;30.26;101088.09;5050248;28;1105;-42
2021/01/09 07:15:45;;;;;;;;;;;;;;;24.28;30.40;101089.75;5049685;28;1082;-48
2021/01/09 07:18:11;;;;;;;;;;;;;;;24.26;30.24;101089.94;5051629;28;1267;-45
2021/01/09 07:20:37;;;;;;;;;;;;;;;24.27;30.08;101088.91;5047135;28;1106;-44
2021/01/09 07:23:05;;;;;;;;;;;;;;;24.26;30.14;101097.97;5052135;28;1947;-44
2021/01/09 07:25:32;;;;;;;;;;;;;;;24.26;30.14;101097.97;5039543;28;1059;-47
2021/01/09 07:27:58;;;;;;;;;;;;;;;24.25;30.29;101099.00;5052068;28;1342;-43
2021/01/09 07:30:25;;;;;;;;;;;;;;;24.26;30.16;101105.19;5049243;28;1014;-49
2021/01/09 07:32:51;;;;;;;;;;;;;;;24.25;30.40;101099.00;5050459;28;1221;-47
2021/01/09 07:35:18;;;;;;;;;;;;;;;24.24;30.02;101094.69;5050078;28;1046;-44
2021/01/09 07:37:43;;;;;;;;;;;;;;;24.24;30.17;101100.03;5047603;28;1335;-44
2021/01/09 07:40:15;;;;;;;;;;;;;;;24.26;30.03;101105.19;5044047;28;1001;-47
2021/01/09 07:42:42;;;;;;;;;;;;;;;24.26;30.14;101106.00;5036080;28;1889;-44
2021/01/09 07:45:08;;;;;;;;;;;;;;;24.26;29.97;101107.88;5036387;28;1419;-43
2021/01/09 07:47:38;;;;;;;;;;;;;;;24.29;30.21;101113.63;5033030;28;1276;-43
2021/01/09 07:50:03;;;;;;;;;;;;;;;24.28;29.95;101120.03;5034718;28;1270;-45
2021/01/09 07:52:31;;;;;;;;;;;;;;;24.29;30.15;101116.31;5033093;28;1151;-43
2021/01/09 07:54:57;;;;;;;;;;;;;;;24.28;30.28;101122.72;5034540;28;1234;-43
2021/01/09 07:57:24;;;;;;;;;;;;;;;24.28;29.89;101127.25;5036096;28;1302;-43
2021/01/09 07:59:56;;;;;;;;;;;;;;;24.30;30.25;101130.56;5039973;28;1318;-44
2021/01/09 08:02:25;;;;;;;;;;;;;;;24.29;30.01;101135.06;5036065;28;1957;-48
2021/01/09 08:04:50;;;;;;;;;;;;;;;24.32;29.83;101138.38;5039767;28;1238;-44
2021/01/09 08:07:16;;;;;;;;;;;;;;;24.32;29.92;101138.38;5037650;28;2189;-42
2021/01/09 08:09:41;;;;;;;;;;;;;;;24.32;29.79;101135.69;5028245;28;2017;-43
2021/01/09 08:12:06;;;;;;;;;;;;;;;24.32;29.64;101151.78;5033158;28;1101;-47
2021/01/09 08:14:31;;;;;;;;;;;;;;;24.31;29.96;101152.81;5032960;28;1263;-45
2021/01/09 08:17:05;;;;;;;;;;;;;;;24.32;29.63;101157.13;5039389;28;1292;-45
2021/01/09 08:19:31;;;;;;;;;;;;;;;24.32;29.61;101155.28;5032780;28;1139;-45
2021/01/09 08:22:02;;;;;;;;;;;;;;;24.33;29.73;101164.13;5045412;28;1964;-43
2021/01/09 08:24:27;;;;;;;;;;;;;;;24.36;29.88;101161.06;5040195;28;1055;-47
2021/01/09 08:26:53;;;;;;;;;;;;;;;24.37;29.85;101171.59;5035892;28;2025;-43
2021/01/09 08:29:22;;;;;;;;;;;;;;;24.36;29.77;101167.25;5036565;28;1445;-46
2021/01/09 08:31:51;;;;;;;;;;;;;;;24.36;29.80;101172.63;5038247;28;1087;-49
2021/01/09 08:34:16;;;;;;;;;;;;;;;24.34;29.67;101174.66;5029091;28;1487;-46
2021/01/09 08:36:42;;;;;;;;;;;;;;;24.25;28.91;101179.38;5034368;28;1455;-45
2021/01/09 08:39:07;;;;;;;;;;;;;;;24.18;28.31;101183.91;5040262;28;1378;-46
2021/01/09 08:41:39;;;;;;;;;;;;;;;24.11;27.89;101181.22;5038823;28;1987;-43
2021/01/09 08:44:11;;;;;;;;;;;;;;;24.08;27.61;101184.31;5049447;28;1093;-48
2021/01/09 08:46:37;;;;;;;;;;;;;;;24.03;27.50;101188.59;5052139;28;1213;-47
2021/01/09 08:49:03;;;;;;;;;;;;;;;23.99;27.23;101194.34;5055020;28;1034;-44
2021/01/09 08:51:29;;;;;;;;;;;;;;;23.97;26.99;101188.34;5051053;28;1094;-46
2021/01/09 08:54:00;;;;;;;;;;;;;;;23.93;26.68;101192.44;5049265;28;1043;-44
2021/01/09 08:56:29;;;;;;;;;;;;;;;23.92;26.63;101196.16;5048261;28;1311;-43
2021/01/09 08:58:55;;;;;;;;;;;;;;;23.92;27.04;101198.03;5053959;28;1042;-44
2021/01/09 09:01:29;;;;;;;;;;;;;;;23.92;27.39;101193.47;5049028;28;1173;-43
2021/01/09 09:03:56;;;;;;;;;;;;;;;23.95;27.49;101206.47;5036297;28;1951;-44
2021/01/09 09:06:22;;;;;;;;;;;;;;;23.94;27.55;101202.13;5039861;28;1304;-43
2021/01/09 09:08:47;;;;;;;;;;;;;;;23.97;27.93;101196.38;5035337;28;1142;-43
2021/01/09 09:11:14;;;;;;;;;;;;;;;23.98;27.91;101200.72;5035119;28;1480;-43
2021/01/09 09:13:39;;;;;;;;;;;;;;;24.03;28.38;101188.59;5035333;28;1087;-42
2021/01/09 09:16:15;;;;;;;;;;;;;;;24.04;28.29;101193.78;5037483;28;1254;-46
2021/01/09 09:18:40;;;;;;;;;;;;;;;24.07;28.43;101189.84;5035910;28;1483;-43
2021/01/09 09:21:08;;;;;;;;;;;;;;;24.09;28.54;101196.66;5039853;28;1081;-43
2021/01/09 09:23:33;;;;;;;;;;;;;;;24.12;28.69;101190.91;5037158;28;1953;-45
2021/01/09 09:26:16;;;;;;;;;;;;;;;24.15;28.41;101195.03;5043479;28;1188;-45
2021/01/09 09:29:02;;;;;;;;;;;;;;;24.19;28.77;101198.94;5031549;28;1204;-43
2021/01/09 09:31:28;;;;;;;;;;;;;;;24.22;28.96;101205.75;5036192;28;1319;-45
2021/01/09 09:33:54;;;;;;;;;;;;;;;24.22;29.13;101203.91;5035351;28;1229;-44
2021/01/09 09:36:19;;;;;;;;;;;;;;;24.23;29.15;101202.06;5035645;28;1256;-46
2021/01/09 09:38:45;;;;;;;;;;;;;;;24.23;29.22;101205.56;5035146;28;1306;-41
2021/01/09 09:41:10;;;;;;;;;;;;;;;24.25;29.19;101211.53;5037797;28;1340;-45
2021/01/09 09:43:35;;;;;;;;;;;;;;;24.24;29.32;101212.56;5045378;28;1893;-44
2021/01/09 09:46:03;;;;;;;;;;;;;;;24.27;29.56;101220.19;5051736;28;1042;-46
2021/01/09 09:48:39;;;;;;;;;;;;;;;24.27;29.56;101214.03;5050870;28;1290;-44
2021/01/09 09:51:05;;;;;;;;;;;;;;;24.28;29.54;101213.81;5053510;28;1081;-47
2021/01/09 09:53:34;;;;;;;;;;;;;;;24.23;29.53;101213.59;5047497;28;1007;-44
2021/01/09 09:56:11;;;;;;;;;;;;;;;24.29;30.08;101210.09;5036784;28;1166;-46
2021/01/09 09:58:37;;;;;;;;;;;;;;;24.31;29.88;101217.94;5032389;28;1569;-45
2021/01/09 10:01:02;;;;;;;;;;;;;;;24.32;30.00;101219.59;5042244;28;1352;-45
2021/01/09 10:03:34;;;;;;;;;;;;;;;24.29;30.01;101218.13;5033040;28;1902;-47
2021/01/09 10:06:02;;;;;;;;;;;;;;;24.30;29.99;101221.66;5043880;28;1003;-46
2021/01/09 10:08:27;;;;;;;;;;;;;;;24.29;29.96;101222.69;5040884;28;1422;-42
2021/01/09 10:10:52;;;;;;;;;;;;;;;24.26;30.25;101221.22;5049619;28;1018;-47
2021/01/09 10:13:24;;;;;;;;;;;;;;;24.23;30.34;101216.25;5051665;28;1113;-44
2021/01/09 10:15:49;;;;;;;;;;;;;;;24.26;30.53;101212.38;5048862;28;1086;-44
2021/01/09 10:18:14;;;;;;;;;;;;;;;24.28;30.57;101213.81;5051385;28;1374;-45
2021/01/09 10:20:40;;;;;;;;;;;;;;;24.31;30.89;101223.31;5048639;28;1129;-43
2021/01/09 10:23:05;;;;;;;;;;;;;;;24.32;30.60;101219.59;5049699;28;1914;-45
2021/01/09 10:25:30;;;;;;;;;;;;;;;24.34;30.66;101214.88;5052872;28;1030;-43
2021/01/09 10:27:55;;;;;;;;;;;;;;;24.36;30.62;101218.16;5048777;28;1298;-48
2021/01/09 10:30:21;;;;;;;;;;;;;;;24.37;30.90;101217.13;5052087;28;1133;-43
2021/01/09 10:32:46;;;;;;;;;;;;;;;24.41;30.88;101230.94;5048742;28;1144;-44
2021/01/09 10:35:11;;;;;;;;;;;;;;;24.43;30.83;101220.84;5050419;28;1045;-47
2021/01/09 10:37:36;;;;;;;;;;;;;;;24.44;31.21;101219.81;5049148;28;1268;-43
2021/01/09 10:40:02;;;;;;;;;;;;;;;24.46;30.80;101219.63;5048960;28;1129;-46
2021/01/09 10:42:27;;;;;;;;;;;;;;;24.50;30.89;101224.34;5051856;28;1898;-45
2021/01/09 10:44:52;;;;;;;;;;;;;;;24.53;31.05;101221.28;5048915;28;1124;-44
2021/01/09 10:47:18;;;;;;;;;;;;;;;24.54;31.23;101228.28;5050798;28;1278;-43
2021/01/09 10:49:43;;;;;;;;;;;;;;;24.57;31.09;101217.16;5047798;28;1140;-43
2021/01/09 10:52:08;;;;;;;;;;;;;;;24.60;31.04;101213.25;5050573;28;1014;-47
2021/01/09 10:54:33;;;;;;;;;;;;;;;24.61;30.94;101222.09;5052407;28;1030;-43
2021/01/09 10:56:58;;;;;;;;;;;;;;;24.64;32.91;101221.69;5038504;28;1485;-48
2021/01/09 10:59:24;;;;;;;;;;;;;;;24.64;31.72;101213.66;5033693;28;1113;-44
2021/01/09 11:01:49;;;;;;;;;;;;;;;24.70;31.13;101215.50;5032225;28;1957;-47
2021/01/09 11:04:14;;;;;;;;;;;;;;;24.47;26.67;101222.09;5030271;28;1441;-43
2021/01/09 11:06:39;;;;;;;;;;;;;;;24.14;23.43;101221.00;5034575;28;1319;-48
2021/01/09 11:09:04;;;;;;;;;;;;;;;24.08;22.70;101220.97;5041908;28;1490;-53
2021/01/09 11:11:30;;;;;;;;;;;;;;;23.82;22.66;101209.09;5036169;28;1452;-47
2021/01/09 11:13:55;;;;;;;;;;;;;;;23.86;22.81;101207.66;5039466;28;1435;-41
2021/01/09 11:16:21;;;;;;;;;;;;;;;23.96;23.33;101209.97;5043526;28;1445;-50
2021/01/09 11:18:46;;;;;;;;;;;;;;;24.03;23.33;101208.19;5029760;28;1217;-49
2021/01/09 11:21:11;;;;;;;;;;;;;;;24.14;24.21;101220.16;5031910;28;1391;-45
2021/01/09 11:23:36;;;;;;;;;;;;;;;24.19;24.34;101217.69;5035175;28;1906;-48
2021/01/09 11:26:01;;;;;;;;;;;;;;;24.23;24.82;101221.63;5025517;28;1396;-44
2021/01/09 11:28:27;;;;;;;;;;;;;;;24.30;24.94;101208.25;5036947;28;1288;-50
2021/01/09 11:30:52;;;;;;;;;;;;;;;24.33;25.04;101215.91;5040584;28;1092;-44
2021/01/09 11:33:17;;;;;;;;;;;;;;;24.40;25.61;101213.22;5032031;28;1141;-47
2021/01/09 11:35:42;;;;;;;;;;;;;;;24.45;25.64;101218.78;5031246;28;1204;-46
2021/01/09 11:38:07;;;;;;;;;;;;;;;24.49;26.09;101214.66;5037361;28;1414;-45
2021/01/09 11:40:33;;;;;;;;;;;;;;;24.52;26.32;101216.13;5032686;28;1216;-50
2021/01/09 11:42:58;;;;;;;;;;;;;;;24.57;26.18;101214.47;5036564;28;1910;-48
2021/01/09 11:45:23;;;;;;;;;;;;;;;24.58;26.63;101213.44;5039274;28;1163;-48
2021/01/09 11:47:48;;;;;;;;;;;;;;;24.64;26.41;101206.44;5041692;28;1288;-52
2021/01/09 11:50:14;;;;;;;;;;;;;;;24.65;26.78;101210.78;5036952;28;1137;-51
2021/01/09 11:52:39;;;;;;;;;;;;;;;24.68;26.92;101199.66;5029846;28;1354;-45
2021/01/09 11:55:05;;;;;;;;;;;;;;;24.71;27.05;101195.72;5044527;28;1446;-48
2021/01/09 11:57:30;;;;;;;;;;;;;;;24.74;27.19;101192.66;5033833;28;1435;-48
2021/01/09 11:59:55;;;;;;;;;;;;;;;24.76;27.49;101193.28;5038751;28;1402;-47
2021/01/09 12:02:21;;;;;;;;;;;;;;;24.79;27.52;101198.22;5036529;28;1902;-48
2021/01/09 12:04:46;;;;;;;;;;;;;;;24.85;27.40;101200.06;5046049;28;1384;-51
2021/01/09 12:07:11;;;;;;;;;;;;;;;24.90;27.67;101195.94;5045145;28;1314;-49
2021/01/09 12:09:36;;;;;;;;;;;;;;;24.92;27.55;101191.19;5038906;28;1448;-51
2021/01/09 12:12:01;;;;;;;;;;;;;;;24.93;27.65;101196.38;5028222;28;1507;-48
2021/01/09 12:14:27;;;;;;;;;;;;;;;24.96;27.55;101195.13;5025795;28;1092;-45
2021/01/09 12:16:52;;;;;;;;;;;;;;;25.00;27.70;101191.00;5036046;28;1360;-48
2021/01/09 12:19:17;;;;;;;;;;;;;;;25.01;27.85;101189.97;5034497;28;1596;-48
2021/01/09 12:21:42;;;;;;;;;;;;;;;25.02;27.60;101192.44;5039468;28;1902;-50
2021/01/09 12:24:08;;;;;;;;;;;;;;;25.04;27.79;101194.91;5038000;28;1137;-49
2021/01/09 12:26:33;;;;;;;;;;;;;;;25.05;27.74;101201.91;5035361;28;1375;-46
2021/01/09 12:28:59;;;;;;;;;;;;;;;25.06;27.42;101197.41;5036371;28;1267;-44
2021/01/09 12:31:31;;;;;;;;;;;;;;;25.12;27.55;101197.38;5041967;28;1502;-50
2021/01/09 12:33:56;;;;;;;;;;;;;;;25.10;27.82;101198.63;5036652;28;1376;-44
2021/01/09 12:36:21;;;;;;;;;;;;;;;25.09;27.88;101197.78;5044187;28;1105;-48
2021/01/09 12:38:46;;;;;;;;;;;;;;;25.08;28.01;101192.66;5049970;28;1270;-49
2021/01/09 12:41:11;;;;;;;;;;;;;;;25.05;27.99;101188.50;5044190;28;1038;-49
2021/01/09 12:43:39;;;;;;;;;;;;;;;25.03;27.96;101198.63;5049127;28;1905;-46
2021/01/09 12:46:04;;;;;;;;;;;;;;;25.01;27.74;101195.31;5051451;28;1022;-52